createdAt,value
2018-12-27T00:00:06.244Z,14.33
2018-12-27T00:02:39.063Z,12.70
2018-12-27T00:05:10.339Z,12.80
2018-12-27T00:07:41.931Z,13.00
2018-12-27T00:10:13.267Z,13.03
2018-12-27T00:12:44.389Z,12.88
2018-12-27T00:15:15.482Z,12.60
2018-12-27T00:17:46.685Z,12.67
2018-12-27T00:20:17.955Z,11.97
2018-12-27T00:22:49.178Z,12.60
2018-12-27T00:25:21.342Z,12.30
2018-12-27T00:27:52.591Z,12.30
2018-12-27T00:30:23.884Z,12.78
2018-12-27T00:33:02.894Z,12.20
2018-12-27T00:35:28.392Z,12.20
2018-12-27T00:37:59.852Z,12.37
2018-12-27T00:40:31.205Z,11.50
2018-12-27T00:43:02.472Z,12.35
2018-12-27T00:45:33.746Z,11.70
2018-12-27T00:48:05.076Z,11.68
2018-12-27T00:50:36.320Z,11.83
2018-12-27T00:53:07.652Z,11.28
2018-12-27T00:55:39.016Z,11.28
2018-12-27T00:58:10.398Z,10.95
2018-12-27T01:00:41.711Z,11.48
2018-12-27T01:03:13.442Z,11.12
2018-12-27T01:05:44.928Z,11.80
2018-12-27T01:08:17.078Z,12.20
2018-12-27T01:10:48.405Z,11.90
2018-12-27T01:13:19.692Z,11.73
2018-12-27T01:15:50.949Z,11.65
2018-12-27T01:18:22.318Z,11.95
2018-12-27T01:20:53.585Z,10.90
2018-12-27T01:23:24.896Z,10.67
2018-12-27T01:25:56.324Z,11.22
2018-12-27T01:28:27.596Z,11.20
2018-12-27T01:30:58.839Z,11.20
2018-12-27T01:33:30.184Z,10.50
2018-12-27T01:36:01.479Z,10.78
2018-12-27T01:38:32.841Z,10.75
2018-12-27T01:41:04.173Z,11.18
2018-12-27T01:43:35.379Z,11.80
2018-12-27T01:46:06.717Z,11.48
2018-12-27T01:48:38.033Z,10.77
2018-12-27T01:51:09.226Z,10.68
2018-12-27T01:53:40.555Z,10.93
2018-12-27T01:56:11.872Z,11.57
2018-12-27T01:58:43.220Z,11.40
2018-12-27T02:01:14.509Z,10.45
2018-12-27T02:03:45.945Z,10.80
2018-12-27T02:06:17.338Z,11.50
2018-12-27T02:08:49.577Z,11.15
2018-12-27T02:11:20.997Z,10.50
2018-12-27T02:13:52.324Z,11.68
2018-12-27T02:16:23.611Z,11.38
2018-12-27T02:18:54.742Z,11.57
2018-12-27T02:21:25.930Z,12.05
2018-12-27T02:23:57.277Z,11.77
2018-12-27T02:26:28.718Z,12.33
2018-12-27T02:29:01.019Z,11.87
2018-12-27T02:31:32.405Z,12.28
2018-12-27T02:34:03.693Z,11.20
2018-12-27T02:36:34.963Z,11.75
2018-12-27T02:39:07.398Z,11.07
2018-12-27T02:41:38.668Z,11.33
2018-12-27T02:44:10.068Z,11.00
2018-12-27T02:46:41.325Z,11.63
2018-12-27T02:49:12.730Z,11.28
2018-12-27T02:51:44.059Z,10.82
2018-12-27T02:54:15.464Z,10.32
2018-12-27T02:56:46.666Z,10.90
2018-12-27T02:59:17.963Z,11.83
2018-12-27T03:01:49.375Z,10.43
2018-12-27T03:04:23.656Z,10.38
2018-12-27T03:06:55.036Z,10.38
2018-12-27T03:09:26.646Z,10.72
2018-12-27T03:11:58.061Z,10.60
2018-12-27T03:14:29.254Z,11.00
2018-12-27T03:17:00.821Z,10.38
2018-12-27T03:19:32.230Z,10.43
2018-12-27T03:22:03.485Z,10.60
2018-12-27T03:24:34.885Z,10.33
2018-12-27T03:27:06.155Z,9.93
2018-12-27T03:29:37.471Z,10.03
2018-12-27T03:32:08.931Z,10.40
2018-12-27T03:34:40.189Z,9.78
2018-12-27T03:37:11.579Z,9.83
2018-12-27T03:39:42.998Z,10.20
2018-12-27T03:42:14.292Z,9.80
2018-12-27T03:44:45.597Z,9.58
2018-12-27T03:47:16.936Z,9.37
2018-12-27T03:49:48.174Z,9.85
2018-12-27T03:52:19.445Z,9.70
2018-12-27T03:54:50.832Z,10.05
2018-12-27T03:57:22.056Z,10.60
2018-12-27T03:59:53.350Z,10.13
2018-12-27T04:02:24.519Z,9.83
2018-12-27T04:04:56.847Z,11.53
2018-12-27T04:07:28.268Z,10.70
2018-12-27T04:10:00.054Z,10.13
2018-12-27T04:12:31.346Z,9.93
2018-12-27T04:15:07.809Z,9.80
2018-12-27T04:17:38.965Z,9.88
2018-12-27T04:20:10.118Z,10.50
2018-12-27T04:22:41.240Z,10.13
2018-12-27T04:25:12.745Z,10.15
2018-12-27T04:27:43.745Z,10.13
2018-12-27T04:30:14.910Z,10.18
2018-12-27T04:32:46.613Z,9.77
2018-12-27T04:35:18.121Z,10.23
2018-12-27T04:37:49.318Z,10.10
2018-12-27T04:40:20.462Z,10.65
2018-12-27T04:42:52.358Z,10.13
2018-12-27T04:45:23.460Z,9.40
2018-12-27T04:47:54.705Z,10.32
2018-12-27T04:50:25.922Z,9.83
2018-12-27T04:52:57.045Z,10.10
2018-12-27T04:55:28.202Z,9.80
2018-12-27T04:57:59.192Z,10.20
2018-12-27T05:00:30.473Z,9.68
2018-12-27T05:03:01.613Z,9.58
2018-12-27T05:05:33.854Z,9.50
2018-12-27T05:08:04.899Z,10.05
2018-12-27T05:10:36.921Z,9.23
2018-12-27T05:13:08.062Z,9.00
2018-12-27T05:15:39.264Z,9.50
2018-12-27T05:18:10.463Z,9.50
2018-12-27T05:20:41.535Z,9.78
2018-12-27T05:23:12.592Z,9.13
2018-12-27T05:25:43.770Z,9.80
2018-12-27T05:28:14.910Z,9.87
2018-12-27T05:30:46.122Z,9.33
2018-12-27T05:33:17.265Z,9.25
2018-12-27T05:35:48.389Z,9.40
2018-12-27T05:38:19.531Z,9.35
2018-12-27T05:40:50.650Z,9.15
2018-12-27T05:43:21.631Z,9.83
2018-12-27T05:45:52.814Z,9.30
2018-12-27T05:48:23.999Z,9.67
2018-12-27T05:50:55.022Z,9.00
2018-12-27T05:53:26.259Z,9.23
2018-12-27T05:55:57.377Z,9.10
2018-12-27T05:58:28.379Z,8.83
2018-12-27T06:00:59.519Z,9.35
2018-12-27T06:03:33.518Z,9.53
2018-12-27T06:06:05.283Z,9.30
2018-12-27T06:08:36.437Z,9.00
2018-12-27T06:11:08.193Z,9.65
2018-12-27T06:13:39.588Z,9.23
2018-12-27T06:16:10.819Z,8.90
2018-12-27T06:18:41.937Z,9.33
2018-12-27T06:21:13.133Z,8.95
2018-12-27T06:23:44.295Z,8.93
2018-12-27T06:26:15.716Z,9.73
2018-12-27T06:28:47.133Z,8.73
2018-12-27T06:31:18.403Z,9.50
2018-12-27T06:33:49.682Z,8.85
2018-12-27T06:36:20.792Z,9.70
2018-12-27T06:38:52.080Z,9.25
2018-12-27T06:41:23.278Z,9.65
2018-12-27T06:43:54.459Z,9.43
2018-12-27T06:46:25.557Z,10.32
2018-12-27T06:48:56.728Z,9.27
2018-12-27T06:51:27.916Z,9.75
2018-12-27T06:53:58.952Z,9.53
2018-12-27T06:56:30.145Z,9.55
2018-12-27T06:59:01.177Z,9.70
2018-12-27T07:01:32.369Z,9.28
2018-12-27T07:04:03.662Z,8.75
2018-12-27T07:06:34.744Z,9.03
2018-12-27T07:09:07.980Z,9.57
2018-12-27T07:11:39.267Z,9.20
2018-12-27T07:14:10.465Z,9.23
2018-12-27T07:16:41.556Z,9.03
2018-12-27T07:19:12.731Z,8.73
2018-12-27T07:21:43.825Z,8.75
2018-12-27T07:24:14.842Z,8.63
2018-12-27T07:26:45.965Z,8.93
2018-12-27T07:30:15.948Z,7.73
2018-12-27T07:33:04.287Z,8.93
2018-12-27T07:35:57.992Z,9.43
2018-12-27T07:38:44.358Z,10.10
2018-12-27T07:41:31.833Z,9.10
2018-12-27T07:44:17.614Z,9.50
2018-12-27T07:47:05.672Z,9.80
2018-12-27T07:49:57.038Z,9.70
2018-12-27T07:52:44.031Z,10.85
2018-12-27T07:55:30.904Z,10.03
2018-12-27T07:58:17.915Z,10.83
2018-12-27T08:01:06.428Z,10.85
2018-12-27T08:03:53.416Z,11.07
2018-12-27T08:06:40.302Z,10.72
2018-12-27T08:09:27.279Z,11.70
2018-12-27T08:12:15.178Z,11.22
2018-12-27T08:15:08.389Z,10.95
2018-12-27T08:17:54.123Z,11.12
2018-12-27T08:20:41.039Z,8.53
2018-12-27T08:23:26.669Z,7.60
2018-12-27T08:26:13.632Z,8.07
2018-12-27T08:28:59.341Z,10.55
2018-12-27T08:31:46.300Z,8.47
2018-12-27T08:34:32.109Z,7.97
2018-12-27T08:37:18.863Z,7.70
2018-12-27T08:40:04.568Z,7.03
2018-12-27T08:42:51.376Z,9.13
2018-12-27T08:45:37.217Z,8.03
2018-12-27T08:48:24.176Z,8.27
2018-12-27T08:51:09.850Z,8.07
2018-12-27T08:53:56.833Z,9.10
2018-12-27T08:56:44.869Z,9.30
2018-12-27T08:59:31.946Z,8.80
2018-12-27T09:02:17.686Z,8.57
2018-12-27T09:05:04.904Z,10.47
2018-12-27T09:07:52.164Z,9.67
2018-12-27T09:13:24.648Z,9.87
2018-12-27T09:16:12.055Z,10.63
2018-12-27T09:18:59.453Z,11.37
2018-12-27T09:21:46.713Z,10.63
2018-12-27T09:24:33.959Z,9.33
2018-12-27T09:27:21.285Z,11.07
2018-12-27T09:30:08.524Z,11.40
2018-12-27T09:32:55.771Z,10.83
2018-12-27T09:35:43.033Z,10.20
2018-12-27T09:38:30.418Z,11.23
2018-12-27T09:41:18.779Z,10.30
2018-12-27T09:44:06.121Z,10.83
2018-12-27T09:46:53.381Z,9.20
2018-12-27T09:49:40.592Z,10.83
2018-12-27T09:52:27.893Z,11.33
2018-12-27T09:55:15.063Z,11.70
2018-12-27T09:58:02.489Z,10.93
2018-12-27T10:00:49.908Z,11.97
2018-12-27T10:03:37.285Z,10.73
2018-12-27T10:06:24.663Z,10.27
2018-12-27T10:09:11.970Z,9.60
2018-12-27T10:11:59.256Z,9.57
2018-12-27T10:14:47.414Z,9.20
2018-12-27T10:17:40.631Z,9.33
2018-12-27T10:20:26.789Z,9.60
2018-12-27T10:23:14.010Z,9.80
2018-12-27T10:26:00.162Z,10.10
2018-12-27T10:28:47.421Z,10.50
2018-12-27T10:31:33.515Z,11.43
2018-12-27T10:34:20.801Z,12.33
2018-12-27T10:37:06.986Z,12.57
2018-12-27T10:39:54.103Z,11.63
2018-12-27T10:42:40.230Z,12.07
2018-12-27T10:45:27.539Z,10.27
2018-12-27T10:48:13.744Z,10.83
2018-12-27T10:51:00.888Z,11.23
2018-12-27T10:56:45.440Z,10.10
2018-12-27T10:59:32.306Z,10.27
2018-12-27T11:02:19.262Z,9.50
2018-12-27T11:05:06.231Z,9.60
2018-12-27T11:07:53.270Z,10.47
2018-12-27T11:10:40.159Z,9.07
2018-12-27T11:13:27.145Z,10.07
2018-12-27T11:16:14.813Z,9.77
2018-12-27T11:19:07.086Z,9.03
2018-12-27T11:21:53.175Z,9.43
2018-12-27T11:24:40.112Z,9.27
2018-12-27T11:27:25.864Z,9.50
2018-12-27T11:30:12.774Z,8.83
2018-12-27T11:32:58.526Z,7.73
2018-12-27T11:35:45.420Z,10.35
2018-12-27T11:38:31.304Z,9.68
2018-12-27T11:41:18.294Z,9.43
2018-12-27T11:44:03.946Z,8.70
2018-12-27T11:46:50.962Z,9.08
2018-12-27T11:49:36.649Z,8.70
2018-12-27T11:52:23.522Z,10.10
2018-12-27T11:55:09.199Z,9.33
2018-12-27T11:57:56.002Z,9.60
2018-12-27T12:00:41.707Z,8.90
2018-12-27T12:03:28.480Z,8.93
2018-12-27T12:06:14.216Z,9.13
2018-12-27T12:09:01.125Z,7.80
2018-12-27T12:11:49.646Z,7.63
2018-12-27T12:17:22.098Z,6.13
2018-12-27T12:20:15.133Z,5.80
2018-12-27T12:23:02.710Z,5.40
2018-12-27T12:25:49.576Z,7.20
2018-12-27T12:28:35.277Z,6.47
2018-12-27T12:31:22.250Z,6.50
2018-12-27T12:34:08.020Z,6.27
2018-12-27T12:36:54.826Z,5.97
2018-12-27T12:39:40.573Z,6.30
2018-12-27T12:42:32.871Z,6.20
2018-12-27T12:45:20.425Z,5.83
2018-12-27T12:48:07.327Z,6.50
2018-12-27T12:50:54.273Z,5.73
2018-12-27T12:53:41.208Z,5.57
2018-12-27T12:56:28.106Z,6.30
2018-12-27T12:59:14.893Z,6.03
2018-12-27T13:02:01.797Z,6.60
2018-12-27T13:04:48.821Z,7.03
2018-12-27T13:07:35.839Z,7.57
2018-12-27T13:10:24.381Z,6.80
2018-12-27T13:13:17.129Z,6.80
2018-12-27T13:16:02.960Z,7.23
2018-12-27T13:18:50.045Z,6.67
2018-12-27T13:21:37.020Z,6.60
2018-12-27T13:24:23.796Z,6.47
2018-12-27T13:27:10.733Z,6.80
2018-12-27T13:29:57.591Z,6.80
2018-12-27T13:32:44.536Z,7.10
2018-12-27T13:35:31.565Z,6.53
2018-12-27T13:38:18.838Z,6.47
2018-12-27T13:41:06.194Z,5.80
2018-12-27T13:43:53.607Z,6.03
2018-12-27T13:46:40.817Z,7.00
2018-12-27T13:49:28.131Z,7.03
2018-12-27T13:52:15.557Z,6.67
2018-12-27T13:55:02.883Z,6.70
2018-12-27T14:01:03.967Z,7.33
2018-12-27T14:04:11.643Z,7.27
2018-12-27T14:06:57.140Z,7.03
2018-12-27T14:12:32.109Z,7.20
2018-12-27T14:15:19.444Z,7.17
2018-12-27T14:18:06.743Z,6.87
2018-12-27T14:24:00.351Z,7.53
2018-12-27T14:26:47.808Z,6.93
2018-12-27T14:29:35.118Z,7.03
2018-12-27T14:32:22.369Z,6.73
2018-12-27T14:35:09.567Z,6.83
2018-12-27T14:37:56.895Z,6.73
2018-12-27T14:40:44.194Z,6.60
2018-12-27T14:43:31.827Z,6.93
2018-12-27T14:46:19.161Z,7.00
2018-12-27T14:49:06.577Z,6.77
2018-12-27T14:51:53.989Z,7.03
2018-12-27T14:58:13.152Z,6.50
2018-12-27T15:01:21.189Z,6.67
2018-12-27T15:04:05.238Z,6.33
2018-12-27T15:06:52.770Z,6.50
2018-12-27T15:09:40.064Z,6.93
2018-12-27T15:12:27.417Z,7.43
2018-12-27T15:15:14.754Z,7.17
2018-12-27T15:18:02.041Z,7.67
2018-12-27T15:20:49.305Z,7.03
2018-12-27T15:26:48.511Z,6.33
2018-12-27T15:32:49.829Z,8.33
2018-12-27T15:35:37.267Z,6.63
2018-12-27T15:38:24.751Z,6.73
2018-12-27T15:41:12.257Z,6.93
2018-12-27T15:43:59.643Z,6.50
2018-12-27T15:46:48.556Z,7.10
2018-12-27T15:49:35.921Z,7.47
2018-12-27T15:52:23.219Z,6.90
2018-12-27T15:55:10.526Z,7.37
2018-12-27T15:57:57.900Z,8.03
2018-12-27T16:00:45.134Z,8.77
2018-12-27T16:03:32.442Z,8.47
2018-12-27T16:06:19.745Z,9.07
2018-12-27T16:09:07.124Z,8.50
2018-12-27T16:15:00.988Z,10.48
2018-12-27T16:17:49.356Z,10.17
2018-12-27T16:20:36.585Z,9.43
2018-12-27T16:23:23.919Z,9.20
2018-12-27T16:26:11.290Z,10.55
2018-12-27T16:31:43.660Z,10.85
2018-12-27T16:34:31.292Z,10.43
2018-12-27T16:37:18.960Z,10.10
2018-12-27T16:40:06.524Z,12.05
2018-12-27T16:42:54.217Z,12.37
2018-12-27T16:45:41.892Z,10.73
2018-12-27T16:48:29.545Z,10.63
2018-12-27T16:51:17.234Z,9.77
2018-12-27T16:54:04.882Z,10.07
2018-12-27T16:56:52.541Z,8.77
2018-12-27T16:59:40.066Z,9.97
2018-12-27T17:02:27.767Z,9.83
2018-12-27T17:05:15.498Z,9.23
2018-12-27T17:08:03.046Z,10.37
2018-12-27T17:10:52.265Z,8.83
2018-12-27T17:13:41.594Z,8.83
2018-12-27T17:16:29.244Z,8.53
2018-12-27T17:19:18.513Z,8.47
2018-12-27T17:22:06.293Z,8.13
2018-12-27T17:24:54.081Z,7.87
2018-12-27T17:27:41.742Z,8.40
2018-12-27T17:33:14.871Z,7.67
2018-12-27T17:36:02.634Z,7.33
2018-12-27T17:38:50.400Z,8.00
2018-12-27T17:41:38.022Z,7.30
2018-12-27T17:44:25.796Z,8.60
2018-12-27T17:47:13.606Z,9.13
2018-12-27T17:50:01.630Z,10.60
2018-12-27T17:52:49.617Z,9.73
2018-12-27T17:55:37.662Z,10.47
2018-12-27T17:58:25.670Z,9.80
2018-12-27T18:01:13.664Z,9.77
2018-12-27T18:04:01.668Z,9.60
2018-12-27T18:06:49.846Z,10.83
2018-12-27T18:09:37.812Z,10.60
2018-12-27T18:12:25.903Z,11.20
2018-12-27T18:18:28.184Z,9.23
2018-12-27T18:21:17.660Z,11.17
2018-12-27T18:24:05.865Z,10.20
2018-12-27T18:26:59.745Z,9.20
2018-12-27T18:29:47.449Z,9.03
2018-12-27T18:32:35.497Z,9.10
2018-12-27T18:35:47.105Z,8.93
2018-12-27T18:38:33.467Z,8.60
2018-12-27T18:41:20.369Z,9.30
2018-12-27T18:44:08.447Z,9.03
2018-12-27T18:46:55.325Z,9.20
2018-12-27T18:49:43.507Z,9.23
2018-12-27T18:52:30.356Z,8.70
2018-12-27T18:55:20.284Z,8.93
2018-12-27T18:58:20.781Z,8.20
2018-12-27T19:01:09.114Z,9.17
2018-12-27T19:04:03.394Z,9.37
2018-12-27T19:06:50.229Z,8.97
2018-12-27T19:09:38.233Z,10.27
2018-12-27T19:12:25.105Z,9.90
2018-12-27T19:15:13.303Z,10.17
2018-12-27T19:18:00.258Z,12.80
2018-12-27T19:20:48.414Z,11.27
2018-12-27T19:23:35.265Z,17.37
2018-12-27T19:26:23.341Z,15.13
2018-12-27T19:29:10.149Z,15.07
2018-12-27T19:31:58.194Z,14.90
2018-12-27T19:37:32.154Z,15.80
2018-12-27T19:40:20.267Z,16.77
2018-12-27T19:43:08.221Z,16.83
2018-12-27T19:45:56.181Z,16.90
2018-12-27T19:48:44.185Z,16.30
2018-12-27T19:51:32.220Z,14.27
2018-12-27T19:54:20.278Z,14.67
2018-12-27T19:57:08.394Z,13.90
2018-12-27T19:59:56.442Z,15.20
2018-12-27T20:02:44.362Z,14.90
2018-12-27T20:05:32.328Z,14.90
2018-12-27T20:08:20.393Z,14.70
2018-12-27T20:11:14.585Z,15.90
2018-12-27T20:14:01.452Z,19.20
2018-12-27T20:16:49.491Z,20.00
2018-12-27T20:19:36.362Z,20.97
2018-12-27T20:22:24.413Z,22.73
2018-12-27T20:25:11.428Z,21.63
2018-12-27T20:27:59.782Z,22.10
2018-12-27T20:30:48.189Z,20.20
2018-12-27T20:33:53.802Z,21.07
2018-12-27T20:36:40.544Z,21.10
2018-12-27T20:39:33.114Z,19.60
2018-12-27T20:42:21.239Z,18.90
2018-12-27T20:45:09.365Z,21.07
2018-12-27T20:47:57.501Z,20.10
2018-12-27T20:50:45.535Z,22.93
2018-12-27T20:53:33.673Z,20.93
2018-12-27T20:56:21.846Z,21.40
2018-12-27T20:59:09.872Z,21.37
2018-12-27T21:02:04.218Z,19.90
2018-12-27T21:04:52.354Z,19.37
2018-12-27T21:07:40.511Z,20.63
2018-12-27T21:10:28.590Z,20.10
2018-12-27T21:13:16.677Z,19.47
2018-12-27T21:16:04.730Z,18.33
2018-12-27T21:18:52.889Z,18.93
2018-12-27T21:21:41.043Z,19.53
2018-12-27T21:24:29.130Z,19.77
2018-12-27T21:27:17.968Z,18.65
2018-12-27T21:30:06.065Z,18.70
2018-12-27T21:32:54.108Z,21.80
2018-12-27T21:35:43.049Z,20.93
2018-12-27T21:38:31.039Z,18.27
2018-12-27T21:41:23.879Z,16.57
2018-12-27T21:44:11.809Z,16.60
2018-12-27T21:46:59.838Z,17.07
2018-12-27T21:49:47.541Z,16.17
2018-12-27T21:52:35.245Z,18.03
2018-12-27T21:58:30.850Z,16.47
2018-12-27T22:01:18.572Z,16.83
2018-12-27T22:04:06.285Z,17.67
2018-12-27T22:06:53.957Z,15.77
2018-12-27T22:09:41.703Z,16.33
2018-12-27T22:12:29.418Z,16.30
2018-12-27T22:15:17.058Z,16.67
2018-12-27T22:18:04.773Z,14.47
2018-12-27T22:20:52.388Z,15.27
2018-12-27T22:23:40.021Z,16.00
2018-12-27T22:26:27.711Z,15.10
2018-12-27T22:29:15.347Z,16.07
2018-12-27T22:32:03.101Z,16.00
2018-12-27T22:34:50.835Z,17.13
2018-12-27T22:37:38.474Z,18.40
2018-12-27T22:43:11.459Z,14.97
2018-12-27T22:45:59.360Z,15.10
2018-12-27T22:49:06.742Z,14.37
2018-12-27T22:51:52.384Z,13.97
2018-12-27T22:54:38.816Z,12.80
2018-12-27T22:57:26.393Z,12.80
2018-12-27T23:03:01.569Z,14.40
2018-12-27T23:05:49.335Z,13.70
2018-12-27T23:08:43.004Z,14.67
2018-12-27T23:11:40.121Z,14.30
2018-12-27T23:14:26.517Z,15.53
2018-12-27T23:17:14.280Z,18.97
2018-12-27T23:20:00.820Z,22.63
2018-12-27T23:22:48.439Z,17.63
2018-12-27T23:25:34.866Z,16.17
2018-12-27T23:28:22.625Z,17.23
2018-12-27T23:31:09.064Z,15.70
2018-12-27T23:33:56.738Z,17.17
2018-12-27T23:36:43.194Z,17.83
2018-12-27T23:39:49.252Z,16.20
2018-12-27T23:42:34.738Z,13.67
2018-12-27T23:45:21.213Z,15.70
2018-12-27T23:48:08.952Z,15.03
2018-12-27T23:50:55.634Z,14.70
2018-12-27T23:53:43.084Z,15.03
2018-12-27T23:56:29.621Z,15.07
2018-12-27T23:59:17.415Z,13.77
